sensor_id;sensor_type;location;lat;lon;timestamp;P1;durP1;ratioP1;P2;durP2;ratioP2
50853;SDS011;44154;45.506;-122.806;2023-01-09T00:01:47;1.45;;;0.32;;
50853;SDS011;44154;45.506;-122.806;2023-01-09T00:04:16;5.75;;;0.82;;
50853;SDS011;44154;45.506;-122.806;2023-01-09T00:06:43;5.50;;;1.10;;
50853;SDS011;44154;45.506;-122.806;2023-01-09T00:09:14;7.65;;;3.10;;
50853;SDS011;44154;45.506;-122.806;2023-01-09T00:11:40;6.93;;;3.67;;
50853;SDS011;44154;45.506;-122.806;2023-01-09T00:14:06;8.13;;;3.72;;
50853;SDS011;44154;45.506;-122.806;2023-01-09T00:16:32;8.07;;;3.88;;
50853;SDS011;44154;45.506;-122.806;2023-01-09T00:18:58;8.95;;;3.30;;
50853;SDS011;44154;45.506;-122.806;2023-01-09T00:21:25;6.28;;;3.17;;
50853;SDS011;44154;45.506;-122.806;2023-01-09T00:23:52;7.00;;;3.20;;
50853;SDS011;44154;45.506;-122.806;2023-01-09T00:26:19;6.07;;;3.20;;
50853;SDS011;44154;45.506;-122.806;2023-01-09T00:28:46;4.30;;;1.90;;
50853;SDS011;44154;45.506;-122.806;2023-01-09T00:31:14;4.28;;;1.98;;
50853;SDS011;44154;45.506;-122.806;2023-01-09T00:33:49;4.05;;;1.60;;
50853;SDS011;44154;45.506;-122.806;2023-01-09T00:36:24;3.22;;;1.42;;
50853;SDS011;44154;45.506;-122.806;2023-01-09T00:38:51;4.63;;;1.30;;
50853;SDS011;44154;45.506;-122.806;2023-01-09T00:41:19;3.58;;;1.50;;
50853;SDS011;44154;45.506;-122.806;2023-01-09T00:43:57;5.78;;;1.40;;
50853;SDS011;44154;45.506;-122.806;2023-01-09T00:46:30;3.70;;;1.35;;
50853;SDS011;44154;45.506;-122.806;2023-01-09T00:49:00;3.60;;;1.50;;
50853;SDS011;44154;45.506;-122.806;2023-01-09T00:51:29;4.47;;;1.52;;
50853;SDS011;44154;45.506;-122.806;2023-01-09T00:53:56;7.75;;;2.00;;
50853;SDS011;44154;45.506;-122.806;2023-01-09T00:56:22;4.80;;;2.20;;
50853;SDS011;44154;45.506;-122.806;2023-01-09T00:58:50;10.93;;;2.97;;
50853;SDS011;44154;45.506;-122.806;2023-01-09T01:01:16;8.63;;;2.28;;
50853;SDS011;44154;45.506;-122.806;2023-01-09T01:03:42;12.35;;;3.95;;
50853;SDS011;44154;45.506;-122.806;2023-01-09T01:06:09;8.88;;;3.28;;
50853;SDS011;44154;45.506;-122.806;2023-01-09T01:08:53;10.27;;;3.60;;
50853;SDS011;44154;45.506;-122.806;2023-01-09T01:11:20;6.18;;;2.15;;
50853;SDS011;44154;45.506;-122.806;2023-01-09T01:13:46;6.90;;;1.60;;
50853;SDS011;44154;45.506;-122.806;2023-01-09T01:16:13;5.85;;;2.05;;
50853;SDS011;44154;45.506;-122.806;2023-01-09T01:18:39;5.63;;;2.08;;
50853;SDS011;44154;45.506;-122.806;2023-01-09T01:21:09;7.82;;;2.75;;
50853;SDS011;44154;45.506;-122.806;2023-01-09T01:23:36;5.93;;;2.20;;
50853;SDS011;44154;45.506;-122.806;2023-01-09T01:26:04;9.57;;;2.08;;
50853;SDS011;44154;45.506;-122.806;2023-01-09T01:28:32;7.15;;;1.98;;
50853;SDS011;44154;45.506;-122.806;2023-01-09T01:30:58;4.45;;;1.50;;
50853;SDS011;44154;45.506;-122.806;2023-01-09T01:33:25;5.57;;;1.77;;
50853;SDS011;44154;45.506;-122.806;2023-01-09T01:35:58;9.20;;;1.85;;
50853;SDS011;44154;45.506;-122.806;2023-01-09T01:38:32;5.18;;;1.25;;
50853;SDS011;44154;45.506;-122.806;2023-01-09T01:40:59;9.88;;;2.47;;
50853;SDS011;44154;45.506;-122.806;2023-01-09T01:43:26;5.57;;;1.70;;
50853;SDS011;44154;45.506;-122.806;2023-01-09T01:45:53;5.45;;;1.48;;
50853;SDS011;44154;45.506;-122.806;2023-01-09T01:48:28;7.28;;;2.13;;
50853;SDS011;44154;45.506;-122.806;2023-01-09T01:51:00;5.47;;;1.90;;
50853;SDS011;44154;45.506;-122.806;2023-01-09T01:53:34;6.30;;;1.95;;
50853;SDS011;44154;45.506;-122.806;2023-01-09T01:56:09;6.10;;;2.00;;
50853;SDS011;44154;45.506;-122.806;2023-01-09T02:01:34;5.80;;;1.58;;
50853;SDS011;44154;45.506;-122.806;2023-01-09T02:04:05;5.13;;;1.90;;
50853;SDS011;44154;45.506;-122.806;2023-01-09T02:06:32;5.57;;;1.60;;
50853;SDS011;44154;45.506;-122.806;2023-01-09T02:09:00;6.20;;;1.60;;
50853;SDS011;44154;45.506;-122.806;2023-01-09T02:11:28;3.88;;;1.40;;
50853;SDS011;44154;45.506;-122.806;2023-01-09T02:13:55;8.07;;;1.77;;
50853;SDS011;44154;45.506;-122.806;2023-01-09T02:28:09;5.03;;;1.50;;
50853;SDS011;44154;45.506;-122.806;2023-01-09T02:30:56;5.53;;;1.60;;
50853;SDS011;44154;45.506;-122.806;2023-01-09T02:33:49;5.75;;;1.73;;
50853;SDS011;44154;45.506;-122.806;2023-01-09T02:39:35;4.13;;;1.63;;
50853;SDS011;44154;45.506;-122.806;2023-01-09T02:42:16;6.45;;;1.75;;
50853;SDS011;44154;45.506;-122.806;2023-01-09T02:44:46;4.28;;;1.40;;
50853;SDS011;44154;45.506;-122.806;2023-01-09T02:49:42;4.72;;;1.20;;
50853;SDS011;44154;45.506;-122.806;2023-01-09T02:58:16;4.25;;;1.10;;
50853;SDS011;44154;45.506;-122.806;2023-01-09T03:06:46;3.05;;;1.10;;
50853;SDS011;44154;45.506;-122.806;2023-01-09T03:09:21;3.63;;;1.30;;
50853;SDS011;44154;45.506;-122.806;2023-01-09T03:11:54;3.15;;;1.23;;
50853;SDS011;44154;45.506;-122.806;2023-01-09T03:14:27;2.22;;;1.10;;
50853;SDS011;44154;45.506;-122.806;2023-01-09T03:16:59;4.30;;;1.33;;
50853;SDS011;44154;45.506;-122.806;2023-01-09T03:19:29;5.57;;;1.40;;
50853;SDS011;44154;45.506;-122.806;2023-01-09T03:21:58;3.75;;;0.85;;
50853;SDS011;44154;45.506;-122.806;2023-01-09T03:24:24;5.90;;;1.30;;
50853;SDS011;44154;45.506;-122.806;2023-01-09T03:26:50;4.45;;;1.15;;
50853;SDS011;44154;45.506;-122.806;2023-01-09T03:29:18;3.00;;;1.13;;
50853;SDS011;44154;45.506;-122.806;2023-01-09T03:31:44;3.35;;;0.98;;
50853;SDS011;44154;45.506;-122.806;2023-01-09T03:34:10;6.18;;;1.40;;
50853;SDS011;44154;45.506;-122.806;2023-01-09T03:36:37;7.05;;;1.60;;
50853;SDS011;44154;45.506;-122.806;2023-01-09T03:39:03;5.20;;;1.23;;
50853;SDS011;44154;45.506;-122.806;2023-01-09T03:41:29;4.97;;;1.70;;
50853;SDS011;44154;45.506;-122.806;2023-01-09T03:43:55;7.20;;;1.35;;
50853;SDS011;44154;45.506;-122.806;2023-01-09T03:46:21;12.05;;;1.33;;
50853;SDS011;44154;45.506;-122.806;2023-01-09T03:48:47;9.57;;;1.30;;
50853;SDS011;44154;45.506;-122.806;2023-01-09T03:51:14;10.38;;;1.48;;
50853;SDS011;44154;45.506;-122.806;2023-01-09T03:53:40;8.63;;;1.73;;
50853;SDS011;44154;45.506;-122.806;2023-01-09T03:56:06;5.95;;;1.20;;
50853;SDS011;44154;45.506;-122.806;2023-01-09T03:58:32;5.30;;;1.40;;
50853;SDS011;44154;45.506;-122.806;2023-01-09T04:00:59;4.85;;;1.38;;
50853;SDS011;44154;45.506;-122.806;2023-01-09T04:03:28;7.05;;;1.33;;
50853;SDS011;44154;45.506;-122.806;2023-01-09T04:05:54;3.03;;;1.10;;
50853;SDS011;44154;45.506;-122.806;2023-01-09T04:08:20;4.78;;;1.25;;
50853;SDS011;44154;45.506;-122.806;2023-01-09T04:10:47;7.30;;;1.42;;
50853;SDS011;44154;45.506;-122.806;2023-01-09T04:13:15;6.15;;;1.77;;
50853;SDS011;44154;45.506;-122.806;2023-01-09T04:15:41;7.25;;;2.42;;
50853;SDS011;44154;45.506;-122.806;2023-01-09T04:18:08;16.90;;;5.53;;
50853;SDS011;44154;45.506;-122.806;2023-01-09T04:20:34;7.40;;;2.10;;
50853;SDS011;44154;45.506;-122.806;2023-01-09T04:23:00;5.47;;;1.80;;
50853;SDS011;44154;45.506;-122.806;2023-01-09T04:25:26;8.25;;;2.15;;
50853;SDS011;44154;45.506;-122.806;2023-01-09T04:27:52;11.63;;;4.28;;
50853;SDS011;44154;45.506;-122.806;2023-01-09T04:30:18;6.43;;;2.30;;
50853;SDS011;44154;45.506;-122.806;2023-01-09T04:32:45;8.25;;;2.20;;
50853;SDS011;44154;45.506;-122.806;2023-01-09T04:35:11;7.85;;;2.42;;
50853;SDS011;44154;45.506;-122.806;2023-01-09T04:37:37;7.22;;;2.25;;
50853;SDS011;44154;45.506;-122.806;2023-01-09T04:40:03;8.73;;;3.22;;
50853;SDS011;44154;45.506;-122.806;2023-01-09T04:42:35;6.50;;;2.58;;
50853;SDS011;44154;45.506;-122.806;2023-01-09T04:45:02;8.00;;;2.33;;
50853;SDS011;44154;45.506;-122.806;2023-01-09T04:47:29;9.00;;;3.75;;
50853;SDS011;44154;45.506;-122.806;2023-01-09T04:49:55;9.82;;;3.20;;
50853;SDS011;44154;45.506;-122.806;2023-01-09T04:52:22;5.18;;;2.38;;
50853;SDS011;44154;45.506;-122.806;2023-01-09T04:54:48;5.15;;;2.70;;
50853;SDS011;44154;45.506;-122.806;2023-01-09T04:57:14;9.75;;;6.13;;
50853;SDS011;44154;45.506;-122.806;2023-01-09T04:59:41;9.15;;;4.00;;
50853;SDS011;44154;45.506;-122.806;2023-01-09T05:02:07;6.38;;;3.50;;
50853;SDS011;44154;45.506;-122.806;2023-01-09T05:04:34;6.55;;;3.45;;
50853;SDS011;44154;45.506;-122.806;2023-01-09T05:07:00;6.25;;;3.38;;
50853;SDS011;44154;45.506;-122.806;2023-01-09T05:09:26;8.80;;;3.17;;
50853;SDS011;44154;45.506;-122.806;2023-01-09T05:11:52;6.47;;;3.33;;
50853;SDS011;44154;45.506;-122.806;2023-01-09T05:14:19;5.53;;;3.17;;
50853;SDS011;44154;45.506;-122.806;2023-01-09T05:16:45;8.23;;;3.75;;
50853;SDS011;44154;45.506;-122.806;2023-01-09T05:19:11;5.28;;;3.03;;
50853;SDS011;44154;45.506;-122.806;2023-01-09T05:21:37;5.78;;;3.25;;
50853;SDS011;44154;45.506;-122.806;2023-01-09T05:24:04;7.25;;;3.42;;
50853;SDS011;44154;45.506;-122.806;2023-01-09T05:26:30;5.68;;;3.45;;
50853;SDS011;44154;45.506;-122.806;2023-01-09T05:28:56;7.72;;;3.80;;
50853;SDS011;44154;45.506;-122.806;2023-01-09T05:31:23;7.00;;;3.70;;
50853;SDS011;44154;45.506;-122.806;2023-01-09T05:33:51;7.53;;;3.85;;
50853;SDS011;44154;45.506;-122.806;2023-01-09T05:36:18;6.07;;;4.18;;
50853;SDS011;44154;45.506;-122.806;2023-01-09T05:38:44;8.13;;;4.03;;
50853;SDS011;44154;45.506;-122.806;2023-01-09T05:41:10;6.93;;;3.85;;
50853;SDS011;44154;45.506;-122.806;2023-01-09T05:43:36;4.45;;;3.28;;
50853;SDS011;44154;45.506;-122.806;2023-01-09T05:46:02;5.88;;;3.70;;
50853;SDS011;44154;45.506;-122.806;2023-01-09T05:48:29;6.70;;;4.00;;
50853;SDS011;44154;45.506;-122.806;2023-01-09T05:50:55;6.35;;;3.53;;
50853;SDS011;44154;45.506;-122.806;2023-01-09T05:53:21;8.80;;;4.60;;
50853;SDS011;44154;45.506;-122.806;2023-01-09T05:55:47;6.65;;;4.13;;
50853;SDS011;44154;45.506;-122.806;2023-01-09T05:58:14;5.45;;;4.07;;
50853;SDS011;44154;45.506;-122.806;2023-01-09T06:00:40;5.97;;;3.95;;
50853;SDS011;44154;45.506;-122.806;2023-01-09T06:03:06;5.55;;;3.80;;
50853;SDS011;44154;45.506;-122.806;2023-01-09T06:05:32;6.25;;;4.50;;
50853;SDS011;44154;45.506;-122.806;2023-01-09T06:07:58;7.03;;;4.05;;
50853;SDS011;44154;45.506;-122.806;2023-01-09T06:10:25;7.05;;;4.70;;
50853;SDS011;44154;45.506;-122.806;2023-01-09T06:12:51;7.00;;;4.32;;
50853;SDS011;44154;45.506;-122.806;2023-01-09T06:15:20;6.28;;;4.60;;
50853;SDS011;44154;45.506;-122.806;2023-01-09T06:17:46;6.00;;;4.40;;
50853;SDS011;44154;45.506;-122.806;2023-01-09T06:20:12;6.35;;;4.88;;
50853;SDS011;44154;45.506;-122.806;2023-01-09T06:22:39;7.97;;;4.82;;
50853;SDS011;44154;45.506;-122.806;2023-01-09T06:25:05;7.20;;;4.93;;
50853;SDS011;44154;45.506;-122.806;2023-01-09T06:27:31;8.60;;;5.20;;
50853;SDS011;44154;45.506;-122.806;2023-01-09T06:29:58;7.13;;;5.13;;
50853;SDS011;44154;45.506;-122.806;2023-01-09T06:32:24;6.57;;;5.38;;
50853;SDS011;44154;45.506;-122.806;2023-01-09T06:34:50;6.85;;;5.15;;
50853;SDS011;44154;45.506;-122.806;2023-01-09T06:37:16;8.55;;;6.03;;
50853;SDS011;44154;45.506;-122.806;2023-01-09T06:39:42;7.90;;;6.05;;
50853;SDS011;44154;45.506;-122.806;2023-01-09T06:42:08;7.43;;;5.70;;
50853;SDS011;44154;45.506;-122.806;2023-01-09T06:44:34;6.65;;;5.85;;
50853;SDS011;44154;45.506;-122.806;2023-01-09T06:47:03;7.80;;;5.75;;
50853;SDS011;44154;45.506;-122.806;2023-01-09T06:49:30;7.43;;;6.43;;
50853;SDS011;44154;45.506;-122.806;2023-01-09T06:51:56;8.10;;;6.78;;
50853;SDS011;44154;45.506;-122.806;2023-01-09T06:54:22;7.38;;;6.40;;
50853;SDS011;44154;45.506;-122.806;2023-01-09T06:56:49;7.22;;;6.50;;
50853;SDS011;44154;45.506;-122.806;2023-01-09T06:59:15;8.15;;;6.65;;
50853;SDS011;44154;45.506;-122.806;2023-01-09T07:01:41;7.75;;;6.57;;
50853;SDS011;44154;45.506;-122.806;2023-01-09T07:04:07;9.60;;;6.80;;
50853;SDS011;44154;45.506;-122.806;2023-01-09T07:06:36;9.73;;;6.97;;
50853;SDS011;44154;45.506;-122.806;2023-01-09T07:09:03;10.15;;;8.50;;
50853;SDS011;44154;45.506;-122.806;2023-01-09T07:11:32;12.05;;;8.13;;
50853;SDS011;44154;45.506;-122.806;2023-01-09T07:13:58;9.02;;;7.80;;
50853;SDS011;44154;45.506;-122.806;2023-01-09T07:16:24;11.15;;;8.15;;
50853;SDS011;44154;45.506;-122.806;2023-01-09T07:18:51;11.57;;;8.18;;
50853;SDS011;44154;45.506;-122.806;2023-01-09T07:21:18;10.80;;;9.30;;
50853;SDS011;44154;45.506;-122.806;2023-01-09T07:23:45;9.90;;;8.85;;
50853;SDS011;44154;45.506;-122.806;2023-01-09T07:26:11;10.68;;;9.50;;
50853;SDS011;44154;45.506;-122.806;2023-01-09T07:28:37;13.77;;;10.35;;
50853;SDS011;44154;45.506;-122.806;2023-01-09T07:31:03;9.85;;;7.78;;
50853;SDS011;44154;45.506;-122.806;2023-01-09T07:33:32;11.40;;;9.85;;
50853;SDS011;44154;45.506;-122.806;2023-01-09T07:35:58;15.63;;;11.63;;
50853;SDS011;44154;45.506;-122.806;2023-01-09T07:38:24;11.45;;;9.18;;
50853;SDS011;44154;45.506;-122.806;2023-01-09T07:40:51;8.82;;;7.28;;
50853;SDS011;44154;45.506;-122.806;2023-01-09T07:43:17;7.95;;;5.88;;
50853;SDS011;44154;45.506;-122.806;2023-01-09T07:45:44;8.20;;;5.88;;
50853;SDS011;44154;45.506;-122.806;2023-01-09T07:48:11;7.47;;;5.45;;
50853;SDS011;44154;45.506;-122.806;2023-01-09T07:50:37;8.18;;;5.55;;
50853;SDS011;44154;45.506;-122.806;2023-01-09T07:53:03;7.03;;;5.35;;
50853;SDS011;44154;45.506;-122.806;2023-01-09T07:55:29;6.63;;;5.63;;
50853;SDS011;44154;45.506;-122.806;2023-01-09T07:57:55;8.15;;;6.85;;
50853;SDS011;44154;45.506;-122.806;2023-01-09T08:00:22;8.32;;;6.95;;
50853;SDS011;44154;45.506;-122.806;2023-01-09T08:02:51;8.98;;;7.88;;
50853;SDS011;44154;45.506;-122.806;2023-01-09T08:05:18;9.02;;;7.38;;
50853;SDS011;44154;45.506;-122.806;2023-01-09T08:07:45;10.73;;;8.82;;
50853;SDS011;44154;45.506;-122.806;2023-01-09T08:10:12;11.98;;;10.75;;
50853;SDS011;44154;45.506;-122.806;2023-01-09T08:12:41;13.25;;;11.48;;
50853;SDS011;44154;45.506;-122.806;2023-01-09T08:15:07;13.98;;;12.57;;
50853;SDS011;44154;45.506;-122.806;2023-01-09T08:17:34;14.18;;;12.77;;
50853;SDS011;44154;45.506;-122.806;2023-01-09T08:20:01;14.63;;;13.13;;
50853;SDS011;44154;45.506;-122.806;2023-01-09T08:22:27;16.05;;;14.55;;
50853;SDS011;44154;45.506;-122.806;2023-01-09T08:24:53;17.30;;;15.60;;
50853;SDS011;44154;45.506;-122.806;2023-01-09T08:27:19;16.75;;;15.05;;
50853;SDS011;44154;45.506;-122.806;2023-01-09T08:29:45;16.48;;;14.77;;
50853;SDS011;44154;45.506;-122.806;2023-01-09T08:32:12;15.75;;;14.15;;
50853;SDS011;44154;45.506;-122.806;2023-01-09T08:34:38;17.00;;;15.10;;
50853;SDS011;44154;45.506;-122.806;2023-01-09T08:37:04;16.98;;;15.07;;
50853;SDS011;44154;45.506;-122.806;2023-01-09T08:39:30;17.05;;;15.35;;
50853;SDS011;44154;45.506;-122.806;2023-01-09T08:41:57;17.08;;;15.45;;
50853;SDS011;44154;45.506;-122.806;2023-01-09T08:44:41;16.02;;;14.45;;
50853;SDS011;44154;45.506;-122.806;2023-01-09T08:47:25;16.90;;;15.13;;
50853;SDS011;44154;45.506;-122.806;2023-01-09T08:49:57;17.15;;;15.48;;
50853;SDS011;44154;45.506;-122.806;2023-01-09T08:52:24;17.42;;;15.68;;
50853;SDS011;44154;45.506;-122.806;2023-01-09T08:54:50;18.15;;;16.33;;
50853;SDS011;44154;45.506;-122.806;2023-01-09T08:57:16;18.35;;;16.50;;
50853;SDS011;44154;45.506;-122.806;2023-01-09T08:59:42;16.73;;;15.02;;
50853;SDS011;44154;45.506;-122.806;2023-01-09T09:02:08;17.58;;;15.80;;
50853;SDS011;44154;45.506;-122.806;2023-01-09T09:04:34;17.08;;;15.38;;
50853;SDS011;44154;45.506;-122.806;2023-01-09T09:07:01;13.95;;;12.55;;
50853;SDS011;44154;45.506;-122.806;2023-01-09T09:09:27;14.65;;;12.55;;
50853;SDS011;44154;45.506;-122.806;2023-01-09T09:11:53;14.65;;;13.15;;
50853;SDS011;44154;45.506;-122.806;2023-01-09T09:14:19;15.70;;;13.20;;
50853;SDS011;44154;45.506;-122.806;2023-01-09T09:17:03;17.88;;;16.02;;
50853;SDS011;44154;45.506;-122.806;2023-01-09T09:19:30;15.75;;;14.25;;
50853;SDS011;44154;45.506;-122.806;2023-01-09T09:21:56;18.48;;;15.02;;
50853;SDS011;44154;45.506;-122.806;2023-01-09T09:24:22;17.85;;;15.95;;
50853;SDS011;44154;45.506;-122.806;2023-01-09T09:26:48;16.42;;;14.82;;
50853;SDS011;44154;45.506;-122.806;2023-01-09T09:29:14;19.50;;;17.50;;
50853;SDS011;44154;45.506;-122.806;2023-01-09T09:31:40;18.23;;;16.33;;
50853;SDS011;44154;45.506;-122.806;2023-01-09T09:34:07;26.02;;;23.38;;
50853;SDS011;44154;45.506;-122.806;2023-01-09T09:36:34;92.00;;;82.95;;
50853;SDS011;44154;45.506;-122.806;2023-01-09T09:39:01;75.53;;;68.13;;
50853;SDS011;44154;45.506;-122.806;2023-01-09T09:41:33;62.95;;;56.95;;
50853;SDS011;44154;45.506;-122.806;2023-01-09T09:44:49;38.50;;;34.80;;
50853;SDS011;44154;45.506;-122.806;2023-01-09T09:55:36;38.42;;;34.75;;
50853;SDS011;44154;45.506;-122.806;2023-01-09T09:58:20;38.35;;;34.75;;
50853;SDS011;44154;45.506;-122.806;2023-01-09T10:00:53;39.15;;;35.50;;
50853;SDS011;44154;45.506;-122.806;2023-01-09T10:05:49;38.38;;;34.75;;
50853;SDS011;44154;45.506;-122.806;2023-01-09T10:08:29;47.58;;;42.95;;
50853;SDS011;44154;45.506;-122.806;2023-01-09T10:11:03;63.30;;;57.10;;
50853;SDS011;44154;45.506;-122.806;2023-01-09T10:13:34;51.50;;;46.63;;
50853;SDS011;44154;45.506;-122.806;2023-01-09T10:18:57;36.30;;;32.97;;
50853;SDS011;44154;45.506;-122.806;2023-01-09T10:21:38;33.60;;;30.50;;
50853;SDS011;44154;45.506;-122.806;2023-01-09T10:24:14;35.72;;;32.42;;
50853;SDS011;44154;45.506;-122.806;2023-01-09T10:26:55;38.20;;;34.63;;
50853;SDS011;44154;45.506;-122.806;2023-01-09T10:29:29;38.80;;;35.17;;
50853;SDS011;44154;45.506;-122.806;2023-01-09T10:32:13;39.78;;;36.08;;
50853;SDS011;44154;45.506;-122.806;2023-01-09T10:37:29;36.00;;;32.60;;
50853;SDS011;44154;45.506;-122.806;2023-01-09T10:42:49;41.78;;;37.83;;
50853;SDS011;44154;45.506;-122.806;2023-01-09T10:45:41;35.35;;;32.08;;
50853;SDS011;44154;45.506;-122.806;2023-01-09T10:48:31;33.15;;;29.95;;
50853;SDS011;44154;45.506;-122.806;2023-01-09T10:51:00;32.17;;;29.20;;
50853;SDS011;44154;45.506;-122.806;2023-01-09T10:53:38;32.72;;;29.67;;
50853;SDS011;44154;45.506;-122.806;2023-01-09T10:59:09;33.15;;;30.05;;
50853;SDS011;44154;45.506;-122.806;2023-01-09T11:01:36;32.58;;;29.48;;
50853;SDS011;44154;45.506;-122.806;2023-01-09T11:04:09;34.40;;;31.20;;
50853;SDS011;44154;45.506;-122.806;2023-01-09T11:06:52;29.92;;;27.23;;
50853;SDS011;44154;45.506;-122.806;2023-01-09T11:12:28;40.33;;;36.53;;
50853;SDS011;44154;45.506;-122.806;2023-01-09T11:14:56;34.53;;;31.33;;
50853;SDS011;44154;45.506;-122.806;2023-01-09T11:17:44;27.92;;;25.42;;
50853;SDS011;44154;45.506;-122.806;2023-01-09T11:20:16;28.90;;;26.10;;
50853;SDS011;44154;45.506;-122.806;2023-01-09T11:22:46;27.85;;;25.35;;
50853;SDS011;44154;45.506;-122.806;2023-01-09T11:25:15;27.95;;;25.45;;
50853;SDS011;44154;45.506;-122.806;2023-01-09T11:27:42;27.67;;;24.98;;
50853;SDS011;44154;45.506;-122.806;2023-01-09T11:30:13;28.08;;;25.48;;
50853;SDS011;44154;45.506;-122.806;2023-01-09T11:32:44;29.00;;;26.23;;
50853;SDS011;44154;45.506;-122.806;2023-01-09T11:35:26;29.02;;;26.33;;
50853;SDS011;44154;45.506;-122.806;2023-01-09T11:37:57;26.83;;;24.23;;
50853;SDS011;44154;45.506;-122.806;2023-01-09T11:40:30;36.40;;;33.00;;
50853;SDS011;44154;45.506;-122.806;2023-01-09T11:43:03;34.25;;;30.95;;
50853;SDS011;44154;45.506;-122.806;2023-01-09T11:45:41;28.95;;;26.23;;
50853;SDS011;44154;45.506;-122.806;2023-01-09T11:50:56;26.83;;;24.33;;
50853;SDS011;44154;45.506;-122.806;2023-01-09T11:53:24;23.02;;;20.88;;
50853;SDS011;44154;45.506;-122.806;2023-01-09T11:55:53;25.38;;;23.08;;
50853;SDS011;44154;45.506;-122.806;2023-01-09T11:58:27;25.48;;;23.05;;
50853;SDS011;44154;45.506;-122.806;2023-01-09T12:22:15;18.60;;;16.95;;
50853;SDS011;44154;45.506;-122.806;2023-01-09T12:27:23;19.35;;;17.55;;
50853;SDS011;44154;45.506;-122.806;2023-01-09T12:32:47;18.95;;;17.15;;
50853;SDS011;44154;45.506;-122.806;2023-01-09T12:35:43;19.77;;;17.88;;
50853;SDS011;44154;45.506;-122.806;2023-01-09T12:46:42;15.43;;;14.02;;
50853;SDS011;44154;45.506;-122.806;2023-01-09T12:57:33;14.20;;;12.80;;
50853;SDS011;44154;45.506;-122.806;2023-01-09T13:05:17;13.25;;;12.02;;
50853;SDS011;44154;45.506;-122.806;2023-01-09T13:13:04;12.75;;;11.45;;
50853;SDS011;44154;45.506;-122.806;2023-01-09T13:15:48;11.50;;;10.45;;
50853;SDS011;44154;45.506;-122.806;2023-01-09T13:21:08;9.93;;;9.02;;
50853;SDS011;44154;45.506;-122.806;2023-01-09T13:23:42;10.50;;;9.43;;
50853;SDS011;44154;45.506;-122.806;2023-01-09T13:26:29;9.82;;;8.05;;
50853;SDS011;44154;45.506;-122.806;2023-01-09T13:29:12;9.18;;;8.07;;
50853;SDS011;44154;45.506;-122.806;2023-01-09T13:34:30;7.60;;;6.85;;
50853;SDS011;44154;45.506;-122.806;2023-01-09T13:37:00;9.15;;;7.18;;
50853;SDS011;44154;45.506;-122.806;2023-01-09T13:39:31;7.22;;;6.53;;
50853;SDS011;44154;45.506;-122.806;2023-01-09T13:42:02;5.60;;;5.05;;
50853;SDS011;44154;45.506;-122.806;2023-01-09T13:45:24;6.85;;;6.22;;
50853;SDS011;44154;45.506;-122.806;2023-01-09T13:50:41;6.15;;;5.55;;
50853;SDS011;44154;45.506;-122.806;2023-01-09T13:56:04;6.10;;;5.35;;
50853;SDS011;44154;45.506;-122.806;2023-01-09T14:01:05;6.50;;;5.90;;
50853;SDS011;44154;45.506;-122.806;2023-01-09T14:07:03;4.45;;;4.03;;
50853;SDS011;44154;45.506;-122.806;2023-01-09T14:09:51;4.07;;;3.60;;
50853;SDS011;44154;45.506;-122.806;2023-01-09T14:12:21;5.32;;;4.25;;
50853;SDS011;44154;45.506;-122.806;2023-01-09T14:14:48;4.00;;;3.60;;
50853;SDS011;44154;45.506;-122.806;2023-01-09T14:17:22;4.43;;;3.72;;
50853;SDS011;44154;45.506;-122.806;2023-01-09T14:20:02;4.63;;;3.65;;
50853;SDS011;44154;45.506;-122.806;2023-01-09T14:22:32;4.60;;;4.00;;
50853;SDS011;44154;45.506;-122.806;2023-01-09T14:25:06;4.13;;;3.65;;
50853;SDS011;44154;45.506;-122.806;2023-01-09T14:32:54;3.70;;;2.97;;
50853;SDS011;44154;45.506;-122.806;2023-01-09T14:35:41;3.30;;;3.00;;
50853;SDS011;44154;45.506;-122.806;2023-01-09T14:38:31;3.50;;;2.97;;
50853;SDS011;44154;45.506;-122.806;2023-01-09T14:43:57;3.28;;;2.97;;
50853;SDS011;44154;45.506;-122.806;2023-01-09T14:46:44;2.90;;;2.60;;
50853;SDS011;44154;45.506;-122.806;2023-01-09T14:49:21;3.03;;;2.38;;
50853;SDS011;44154;45.506;-122.806;2023-01-09T14:52:04;2.67;;;2.35;;
50853;SDS011;44154;45.506;-122.806;2023-01-09T14:54:39;3.00;;;2.47;;
50853;SDS011;44154;45.506;-122.806;2023-01-09T14:57:40;2.30;;;2.10;;
50853;SDS011;44154;45.506;-122.806;2023-01-09T15:00:00;2.30;;;2.00;;
50853;SDS011;44154;45.506;-122.806;2023-01-09T15:02:34;2.28;;;1.85;;
50853;SDS011;44154;45.506;-122.806;2023-01-09T15:05:05;1.75;;;1.42;;
50853;SDS011;44154;45.506;-122.806;2023-01-09T15:07:35;1.40;;;1.30;;
50853;SDS011;44154;45.506;-122.806;2023-01-09T15:10:22;1.35;;;1.20;;
50853;SDS011;44154;45.506;-122.806;2023-01-09T15:12:54;2.03;;;1.30;;
50853;SDS011;44154;45.506;-122.806;2023-01-09T15:15:22;1.75;;;1.25;;
50853;SDS011;44154;45.506;-122.806;2023-01-09T15:17:54;1.27;;;1.10;;
50853;SDS011;44154;45.506;-122.806;2023-01-09T15:20:28;1.05;;;0.90;;
50853;SDS011;44154;45.506;-122.806;2023-01-09T15:22:56;1.50;;;1.08;;
50853;SDS011;44154;45.506;-122.806;2023-01-09T15:25:30;0.95;;;0.75;;
50853;SDS011;44154;45.506;-122.806;2023-01-09T15:27:57;0.90;;;0.70;;
50853;SDS011;44154;45.506;-122.806;2023-01-09T15:30:27;1.10;;;0.65;;
50853;SDS011;44154;45.506;-122.806;2023-01-09T15:32:59;1.25;;;0.73;;
50853;SDS011;44154;45.506;-122.806;2023-01-09T15:35:28;0.90;;;0.70;;
50853;SDS011;44154;45.506;-122.806;2023-01-09T15:37:54;1.15;;;0.88;;
50853;SDS011;44154;45.506;-122.806;2023-01-09T15:40:22;2.00;;;0.75;;
50853;SDS011;44154;45.506;-122.806;2023-01-09T15:42:53;0.65;;;0.50;;
50853;SDS011;44154;45.506;-122.806;2023-01-09T15:45:24;1.77;;;0.52;;
50853;SDS011;44154;45.506;-122.806;2023-01-09T15:48:24;2.72;;;0.50;;
50853;SDS011;44154;45.506;-122.806;2023-01-09T15:50:56;0.80;;;0.50;;
50853;SDS011;44154;45.506;-122.806;2023-01-09T15:53:23;2.00;;;0.73;;
50853;SDS011;44154;45.506;-122.806;2023-01-09T15:56:05;3.08;;;0.75;;
50853;SDS011;44154;45.506;-122.806;2023-01-09T15:58:52;3.42;;;0.90;;
50853;SDS011;44154;45.506;-122.806;2023-01-09T16:01:29;1.33;;;0.70;;
50853;SDS011;44154;45.506;-122.806;2023-01-09T16:03:57;4.13;;;1.13;;
50853;SDS011;44154;45.506;-122.806;2023-01-09T16:06:30;1.10;;;0.50;;
50853;SDS011;44154;45.506;-122.806;2023-01-09T16:08:58;2.00;;;0.60;;
50853;SDS011;44154;45.506;-122.806;2023-01-09T16:13:51;2.88;;;0.95;;
50853;SDS011;44154;45.506;-122.806;2023-01-09T16:16:27;1.50;;;0.75;;
50853;SDS011;44154;45.506;-122.806;2023-01-09T16:18:58;1.27;;;0.50;;
50853;SDS011;44154;45.506;-122.806;2023-01-09T16:24:00;1.55;;;0.43;;
50853;SDS011;44154;45.506;-122.806;2023-01-09T16:26:28;0.82;;;0.60;;
50853;SDS011;44154;45.506;-122.806;2023-01-09T16:28:55;1.30;;;0.50;;
50853;SDS011;44154;45.506;-122.806;2023-01-09T16:33:54;1.92;;;0.40;;
50853;SDS011;44154;45.506;-122.806;2023-01-09T16:36:23;1.15;;;0.50;;
50853;SDS011;44154;45.506;-122.806;2023-01-09T16:38:51;1.88;;;0.50;;
50853;SDS011;44154;45.506;-122.806;2023-01-09T16:41:18;0.95;;;0.50;;
50853;SDS011;44154;45.506;-122.806;2023-01-09T16:44:04;0.98;;;0.40;;
50853;SDS011;44154;45.506;-122.806;2023-01-09T16:46:40;3.05;;;0.57;;